Montreal, Canada
Current Conditions -  °F | °C
As of 4:23 PM on Saturday 22 Nov 2014 (Local Time) from CYHU Reporting Station
Light Snow Light Snow  
Wind Chill: 27°   Ceiling: 3600
Heat Index: 34°   Visibility: 5mi
Dew Point: 25°   Wind: 8mph
Humidity: 70%   Direction: 210°SSW
Pressure: 29.9"   Gusts: NA
Location:  45.51°N, 73.55°W
Report Text: CYHU 222123Z AUTO 21007KT 5SM -SN OVC036 01/M04 A2990 RMK SLP128
Loading
Personal Weather Stations






























Interactive Weather Map New forecast layout! Learn more

10-Day Weather Forecast

Advertisements
Track Severe Weather on mobile